createdAt,value
2022-08-25T00:01:39.088Z,97443.70
2022-08-25T00:04:11.024Z,97440.45
2022-08-25T00:06:39.996Z,97442.29
2022-08-25T00:09:09.225Z,97441.45
2022-08-25T00:11:38.316Z,97437.02
2022-08-25T00:14:08.543Z,97436.50
2022-08-25T00:16:36.507Z,97434.35
2022-08-25T00:19:07.318Z,97434.95
2022-08-25T00:21:35.212Z,97431.86
2022-08-25T00:24:03.485Z,97432.04
2022-08-25T00:26:31.579Z,97430.24
2022-08-25T00:29:02.075Z,97431.09
2022-08-25T00:31:38.375Z,97429.41
2022-08-25T00:34:11.887Z,97428.45
2022-08-25T00:36:39.824Z,97430.95
2022-08-25T00:39:08.621Z,97428.13
2022-08-25T00:41:37.404Z,97428.55
2022-08-25T00:44:08.035Z,97424.89
2022-08-25T00:46:41.083Z,97422.21
2022-08-25T00:49:25.056Z,97422.65
2022-08-25T00:51:56.373Z,97416.27
2022-08-25T00:54:27.496Z,97417.10
2022-08-25T00:56:56.713Z,97415.26
2022-08-25T00:59:26.529Z,97415.84
2022-08-25T01:01:55.599Z,97411.44
2022-08-25T01:04:23.916Z,97410.84
2022-08-25T01:06:52.121Z,97411.19
2022-08-25T01:09:20.293Z,97410.39
2022-08-25T01:11:48.472Z,97406.23
2022-08-25T01:14:18.077Z,97402.77
2022-08-25T01:16:46.552Z,97398.58
2022-08-25T01:19:19.277Z,97401.29
2022-08-25T01:21:49.147Z,97402.67
2022-08-25T01:24:24.189Z,97404.67
2022-08-25T01:26:52.225Z,97406.38
2022-08-25T01:29:25.594Z,97407.96
2022-08-25T01:31:58.951Z,97408.23
2022-08-25T01:34:27.866Z,97405.21
2022-08-25T01:36:56.529Z,97408.23
2022-08-25T01:39:25.684Z,97405.55
2022-08-25T01:42:12.439Z,97407.07
2022-08-25T01:44:42.039Z,97406.17
2022-08-25T01:47:10.976Z,97400.82
2022-08-25T01:49:41.692Z,97400.31
2022-08-25T01:52:16.295Z,97396.52
2022-08-25T01:54:44.389Z,97397.73
2022-08-25T01:57:12.541Z,97398.23
2022-08-25T01:59:41.283Z,97395.13
2022-08-25T02:02:09.310Z,97392.98
2022-08-25T02:04:38.737Z,97393.63
2022-08-25T02:07:08.928Z,97393.29
2022-08-25T02:09:37.898Z,97393.70
2022-08-25T02:12:06.404Z,97392.41
2022-08-25T02:14:35.763Z,97391.51
2022-08-25T02:17:03.752Z,97390.77
2022-08-25T02:19:31.746Z,97392.75
2022-08-25T02:22:00.887Z,97393.64
2022-08-25T02:24:29.118Z,97391.16
2022-08-25T02:26:58.321Z,97390.48
2022-08-25T02:29:26.412Z,97392.88
2022-08-25T02:31:54.400Z,97395.63
2022-08-25T02:34:23.414Z,97392.18
2022-08-25T02:36:51.528Z,97396.83
2022-08-25T02:39:19.915Z,97401.55
2022-08-25T02:41:47.822Z,97402.94
2022-08-25T02:44:16.251Z,97396.90
2022-08-25T02:46:44.174Z,97399.19
2022-08-25T02:49:12.072Z,97395.40
2022-08-25T02:51:40.303Z,97391.14
2022-08-25T02:54:08.357Z,97388.66
2022-08-25T02:56:36.477Z,97390.73
2022-08-25T02:59:04.502Z,97395.59
2022-08-25T03:01:32.830Z,97396.52
2022-08-25T03:04:02.133Z,97393.77
2022-08-25T03:06:30.317Z,97393.94
2022-08-25T03:08:58.408Z,97394.69
2022-08-25T03:11:26.697Z,97393.30
2022-08-25T03:13:54.932Z,97395.38
2022-08-25T03:16:23.072Z,97400.69
2022-08-25T03:18:56.220Z,97404.70
2022-08-25T03:21:24.847Z,97406.06
2022-08-25T03:23:52.780Z,97404.52
2022-08-25T03:26:39.141Z,97404.55
2022-08-25T03:29:07.255Z,97403.70
2022-08-25T03:31:35.690Z,97405.77
2022-08-25T03:34:04.318Z,97407.77
2022-08-25T03:36:32.248Z,97406.73
2022-08-25T03:39:00.611Z,97409.29
2022-08-25T03:41:32.594Z,97412.63
2022-08-25T03:44:01.847Z,97414.07
2022-08-25T03:46:35.294Z,97409.42
2022-08-25T03:49:04.263Z,97413.15
2022-08-25T03:51:34.084Z,97414.64
2022-08-25T03:54:02.516Z,97415.34
2022-08-25T03:56:30.576Z,97413.77
2022-08-25T03:58:59.181Z,97411.83
2022-08-25T04:01:27.215Z,97408.73
2022-08-25T04:03:55.163Z,97411.50
2022-08-25T04:06:23.457Z,97411.84
2022-08-25T04:08:52.875Z,97415.70
2022-08-25T04:11:22.021Z,97416.64
2022-08-25T04:13:50.405Z,97421.39
2022-08-25T04:16:20.088Z,97424.20
2022-08-25T04:18:48.354Z,97424.67
2022-08-25T04:21:20.567Z,97422.84
2022-08-25T04:23:49.313Z,97425.09
2022-08-25T04:26:19.854Z,97426.95
2022-08-25T04:28:48.270Z,97431.40
2022-08-25T04:31:17.149Z,97428.41
2022-08-25T04:33:47.268Z,97432.12
2022-08-25T04:36:16.861Z,97441.08
2022-08-25T04:38:45.353Z,97441.17
2022-08-25T04:41:14.417Z,97436.44
2022-08-25T04:43:44.339Z,97436.17
2022-08-25T04:46:14.826Z,97436.38
2022-08-25T04:48:49.069Z,97436.45
2022-08-25T04:51:18.311Z,97433.41
2022-08-25T04:53:46.236Z,97430.11
2022-08-25T04:56:15.165Z,97426.06
2022-08-25T04:58:43.015Z,97424.25
2022-08-25T05:01:15.752Z,97422.21
2022-08-25T05:03:44.760Z,97421.92
2022-08-25T05:06:16.010Z,97422.05
2022-08-25T05:08:45.734Z,97425.30
2022-08-25T05:11:17.550Z,97429.58
2022-08-25T05:13:51.332Z,97424.22
2022-08-25T05:16:20.512Z,97425.70
2022-08-25T05:18:49.138Z,97423.65
2022-08-25T05:21:18.593Z,97427.75
2022-08-25T05:23:47.179Z,97427.39
2022-08-25T05:26:20.249Z,97421.14
2022-08-25T05:28:52.644Z,97425.48
2022-08-25T05:31:21.363Z,97425.55
2022-08-25T05:33:50.633Z,97423.60
2022-08-25T05:36:20.171Z,97424.01
2022-08-25T05:38:48.819Z,97421.29
2022-08-25T05:41:17.989Z,97422.38
2022-08-25T05:43:48.101Z,97420.83
2022-08-25T05:46:17.024Z,97418.92
2022-08-25T05:48:45.103Z,97421.45
2022-08-25T05:51:13.401Z,97419.64
2022-08-25T05:53:43.116Z,97420.16
2022-08-25T05:56:15.061Z,97418.68
2022-08-25T05:58:43.650Z,97417.64
2022-08-25T06:01:37.815Z,97415.02
2022-08-25T06:04:06.535Z,97412.99
2022-08-25T06:06:34.722Z,97420.14
2022-08-25T06:09:03.383Z,97420.32
2022-08-25T06:11:31.247Z,97419.30
2022-08-25T06:13:59.544Z,97417.43
2022-08-25T06:16:27.753Z,97417.80
2022-08-25T06:18:55.795Z,97418.05
2022-08-25T06:21:23.820Z,97419.23
2022-08-25T06:23:51.947Z,97418.41
2022-08-25T06:26:21.416Z,97418.83
2022-08-25T06:28:51.073Z,97420.19
2022-08-25T06:31:20.591Z,97422.17
2022-08-25T06:33:48.538Z,97421.30
2022-08-25T06:36:17.120Z,97417.99
2022-08-25T06:38:45.945Z,97419.87
2022-08-25T06:41:14.258Z,97421.02
2022-08-25T06:43:47.974Z,97421.15
2022-08-25T06:46:21.945Z,97418.21
2022-08-25T06:48:56.924Z,97415.19
2022-08-25T06:51:26.177Z,97415.70
2022-08-25T06:53:54.300Z,97419.96
2022-08-25T06:56:22.109Z,97417.55
2022-08-25T06:58:52.082Z,97423.56
2022-08-25T07:01:25.783Z,97419.69
2022-08-25T07:03:58.101Z,97417.95
2022-08-25T07:06:27.269Z,97416.09
2022-08-25T07:08:55.196Z,97413.58
2022-08-25T07:11:23.536Z,97417.97
2022-08-25T07:13:51.466Z,97416.04
2022-08-25T07:16:20.681Z,97410.16
2022-08-25T07:18:49.154Z,97408.28
2022-08-25T07:21:23.060Z,97408.00
2022-08-25T07:23:53.897Z,97401.66
2022-08-25T07:26:37.296Z,97402.77
2022-08-25T07:29:11.339Z,97403.66
2022-08-25T07:31:39.341Z,97399.79
2022-08-25T07:34:26.173Z,97398.10
2022-08-25T07:36:55.009Z,97393.70
2022-08-25T07:39:23.699Z,97392.67
2022-08-25T07:41:52.575Z,97393.23
2022-08-25T07:44:22.186Z,97393.03
2022-08-25T07:46:51.231Z,97388.10
2022-08-25T07:49:23.278Z,97387.24
2022-08-25T07:52:04.730Z,97390.42
2022-08-25T07:54:35.695Z,97387.34
2022-08-25T07:57:07.727Z,97389.86
2022-08-25T07:59:39.576Z,97385.82
2022-08-25T08:02:09.343Z,97382.39
2022-08-25T08:04:50.406Z,97384.23
2022-08-25T08:07:43.042Z,97379.19
2022-08-25T08:10:54.173Z,97379.63
2022-08-25T08:13:20.917Z,97384.21
2022-08-25T08:16:03.782Z,97379.53
2022-08-25T08:18:39.632Z,97374.52
2022-08-25T08:21:19.991Z,97366.30
2022-08-25T08:23:49.345Z,97367.23
2022-08-25T08:26:57.590Z,97361.17
2022-08-25T08:29:44.674Z,97357.42
2022-08-25T08:32:14.528Z,97353.30
2022-08-25T08:34:43.566Z,97355.27
2022-08-25T08:37:14.270Z,97352.69
2022-08-25T08:39:58.143Z,97345.91
2022-08-25T08:42:50.423Z,97348.48
2022-08-25T08:45:26.842Z,97349.29
2022-08-25T08:48:13.409Z,97345.89
2022-08-25T08:50:54.474Z,97342.27
2022-08-25T08:53:27.399Z,97341.07
2022-08-25T08:56:06.937Z,97338.10
2022-08-25T08:59:07.381Z,97338.01
2022-08-25T09:01:47.581Z,97335.56
2022-08-25T09:04:24.385Z,97331.96
2022-08-25T09:07:09.296Z,97332.17
2022-08-25T09:10:10.174Z,97329.23
2022-08-25T09:12:59.107Z,97326.86
2022-08-25T09:15:57.518Z,97324.30
2022-08-25T09:18:32.025Z,97323.22
2022-08-25T09:21:00.580Z,97320.86
2022-08-25T09:23:28.495Z,97318.86
2022-08-25T09:25:56.379Z,97319.40
2022-08-25T09:28:38.737Z,97316.02
2022-08-25T09:31:16.444Z,97308.64
2022-08-25T09:33:45.274Z,97307.41
2022-08-25T09:36:15.190Z,97301.06
2022-08-25T09:38:43.080Z,97301.07
2022-08-25T09:41:15.691Z,97296.49
2022-08-25T09:43:53.486Z,97295.58
2022-08-25T09:46:27.004Z,97296.38
2022-08-25T09:48:57.599Z,97294.59
2022-08-25T09:51:25.749Z,97291.15
2022-08-25T09:53:53.744Z,97287.56
2022-08-25T09:56:24.391Z,97285.90
2022-08-25T09:58:55.004Z,97284.33
2022-08-25T10:01:23.568Z,97282.67
2022-08-25T10:03:57.557Z,97277.34
2022-08-25T10:06:27.321Z,97279.04
2022-08-25T10:08:59.808Z,97281.91
2022-08-25T10:11:40.162Z,97276.69
2022-08-25T10:14:16.789Z,97271.61
2022-08-25T10:16:47.280Z,97269.64
2022-08-25T10:19:18.753Z,97263.68
2022-08-25T10:22:01.788Z,97262.42
2022-08-25T10:24:29.665Z,97257.48
2022-08-25T10:27:16.028Z,97251.75
2022-08-25T10:29:43.825Z,97254.02
2022-08-25T10:32:26.895Z,97249.14
2022-08-25T10:34:58.301Z,97255.11
2022-08-25T10:37:32.898Z,97251.18
2022-08-25T10:40:19.583Z,97248.03
2022-08-25T10:42:53.960Z,97247.80
2022-08-25T10:45:51.016Z,97247.17
2022-08-25T10:48:33.155Z,97246.84
2022-08-25T10:51:06.815Z,97242.23
2022-08-25T10:53:47.886Z,97240.73
2022-08-25T10:56:27.951Z,97236.55
2022-08-25T10:59:38.835Z,97232.80
2022-08-25T11:02:56.499Z,97235.09
2022-08-25T11:05:33.285Z,97231.20
2022-08-25T11:08:20.659Z,97224.16
2022-08-25T11:11:34.963Z,97221.59
2022-08-25T11:14:24.430Z,97226.02
2022-08-25T11:17:12.091Z,97221.27
2022-08-25T11:19:51.763Z,97218.50
2022-08-25T11:26:25.076Z,97215.73
2022-08-25T11:29:18.661Z,97213.25
2022-08-25T11:32:17.761Z,97212.10
2022-08-25T11:35:20.279Z,97210.54
2022-08-25T11:38:10.445Z,97201.73
2022-08-25T11:41:30.942Z,97204.20
2022-08-25T11:44:37.923Z,97201.11
2022-08-25T11:47:58.520Z,97204.78
2022-08-25T11:50:41.284Z,97201.95
2022-08-25T11:53:31.786Z,97199.98
2022-08-25T11:56:20.425Z,97200.14
2022-08-25T12:01:58.021Z,97187.95
2022-08-25T12:04:49.559Z,97186.63
2022-08-25T12:08:22.513Z,97186.05
2022-08-25T12:11:20.793Z,97190.04
2022-08-25T12:14:22.574Z,97190.17
2022-08-25T12:17:26.681Z,97186.66
2022-08-25T12:20:13.037Z,97185.95
2022-08-25T12:23:02.662Z,97181.48
2022-08-25T12:25:49.770Z,97180.09
2022-08-25T12:29:02.287Z,97180.91
2022-08-25T12:32:04.812Z,97178.99
2022-08-25T12:35:23.387Z,97179.62
2022-08-25T12:38:06.999Z,97179.17
2022-08-25T12:41:22.633Z,97178.58
2022-08-25T12:44:12.830Z,97177.55
2022-08-25T12:47:09.963Z,97177.70
2022-08-25T12:49:50.695Z,97176.55
2022-08-25T12:52:31.076Z,97177.73
2022-08-25T12:55:08.167Z,97176.02
2022-08-25T12:57:59.954Z,97171.70
2022-08-25T13:00:55.877Z,97169.59
2022-08-25T13:03:59.981Z,97158.98
2022-08-25T13:06:48.157Z,97158.47
2022-08-25T13:09:42.650Z,97155.84
2022-08-25T13:12:39.706Z,97151.17
2022-08-25T13:15:17.087Z,97143.09
2022-08-25T13:17:57.343Z,97142.03
2022-08-25T13:20:33.930Z,97144.91
2022-08-25T13:23:11.621Z,97146.91
2022-08-25T13:25:58.583Z,97141.12
2022-08-25T13:28:42.018Z,97139.19
2022-08-25T13:31:30.667Z,97138.62
2022-08-25T13:34:21.433Z,97137.25
2022-08-25T13:37:29.938Z,97136.39
2022-08-25T13:43:27.372Z,97135.52
2022-08-25T13:46:10.615Z,97132.98
2022-08-25T13:48:49.424Z,97135.34
2022-08-25T13:51:31.834Z,97129.36
2022-08-25T13:54:13.388Z,97128.35
2022-08-25T13:56:50.452Z,97126.60
2022-08-25T13:59:27.965Z,97126.86
2022-08-25T14:02:07.876Z,97127.34
2022-08-25T14:04:53.063Z,97123.42
2022-08-25T14:07:46.450Z,97122.71
2022-08-25T14:10:48.642Z,97117.14
2022-08-25T14:13:32.368Z,97118.08
2022-08-25T14:16:12.084Z,97113.45
2022-08-25T14:18:58.658Z,97112.63
2022-08-25T14:21:36.994Z,97112.48
2022-08-25T14:24:44.901Z,97106.63
2022-08-25T14:27:20.855Z,97103.20
2022-08-25T14:30:00.069Z,97101.88
2022-08-25T14:32:43.991Z,97101.30
2022-08-25T14:35:25.141Z,97102.02
2022-08-25T14:37:57.830Z,97102.27
2022-08-25T14:40:34.670Z,97101.69
2022-08-25T14:43:13.001Z,97100.42
2022-08-25T14:45:50.095Z,97103.58
2022-08-25T14:48:34.976Z,97104.25
2022-08-25T14:51:12.621Z,97103.63
2022-08-25T14:53:47.248Z,97103.34
2022-08-25T14:56:20.402Z,97102.23
2022-08-25T14:59:18.717Z,97100.16
2022-08-25T15:01:53.300Z,97101.29
2022-08-25T15:04:38.885Z,97102.29
2022-08-25T15:07:39.791Z,97102.52
2022-08-25T15:10:22.141Z,97100.83
2022-08-25T15:13:01.402Z,97101.94
2022-08-25T15:15:52.100Z,97099.97
2022-08-25T15:18:35.535Z,97099.85
2022-08-25T15:21:07.910Z,97097.05
2022-08-25T15:23:46.188Z,97093.42
2022-08-25T15:26:28.605Z,97093.17
2022-08-25T15:29:06.910Z,97093.70
2022-08-25T15:31:47.551Z,97097.76
2022-08-25T15:34:29.387Z,97099.41
2022-08-25T15:37:12.668Z,97098.84
2022-08-25T15:39:53.994Z,97093.80
2022-08-25T15:42:30.155Z,97094.31
2022-08-25T15:45:05.404Z,97090.98
2022-08-25T15:47:40.634Z,97092.23
2022-08-25T15:50:26.007Z,97090.02
2022-08-25T15:53:04.133Z,97089.61
2022-08-25T15:55:46.025Z,97086.81
2022-08-25T15:58:20.138Z,97085.85
2022-08-25T16:00:56.630Z,97085.91
2022-08-25T16:03:33.170Z,97085.77
2022-08-25T16:06:07.384Z,97085.30
2022-08-25T16:08:44.581Z,97088.96
2022-08-25T16:11:25.376Z,97089.84
2022-08-25T16:14:01.106Z,97089.86
2022-08-25T16:16:36.428Z,97086.08
2022-08-25T16:19:15.368Z,97087.39
2022-08-25T16:21:53.359Z,97085.98
2022-08-25T16:24:40.378Z,97084.95
2022-08-25T16:27:23.394Z,97087.44
2022-08-25T16:30:00.479Z,97091.59
2022-08-25T16:32:35.616Z,97088.33
2022-08-25T16:35:10.984Z,97089.21
2022-08-25T16:37:46.710Z,97089.98
2022-08-25T16:40:57.130Z,97090.87
2022-08-25T16:44:02.622Z,97088.71
2022-08-25T16:46:38.922Z,97087.70
2022-08-25T16:49:24.316Z,97090.16
2022-08-25T16:52:31.483Z,97086.94
2022-08-25T16:55:20.413Z,97089.14
2022-08-25T16:58:13.471Z,97088.16
2022-08-25T17:00:47.808Z,97086.86
2022-08-25T17:03:33.525Z,97090.02
2022-08-25T17:06:09.058Z,97088.70
2022-08-25T17:08:43.124Z,97094.55
2022-08-25T17:11:28.401Z,97100.76
2022-08-25T17:14:03.229Z,97099.12
2022-08-25T17:19:42.182Z,97100.81
2022-08-25T17:22:23.826Z,97102.91
2022-08-25T17:25:06.841Z,97102.55
2022-08-25T17:27:51.300Z,97099.38
2022-08-25T17:30:29.210Z,97099.83
2022-08-25T17:33:05.458Z,97099.99
2022-08-25T17:35:44.075Z,97104.53
2022-08-25T17:38:21.486Z,97105.20
2022-08-25T17:41:05.234Z,97103.10
2022-08-25T17:43:39.882Z,97106.40
2022-08-25T17:46:14.734Z,97114.83
2022-08-25T17:49:19.409Z,97122.48
2022-08-25T17:51:55.354Z,97123.41
2022-08-25T17:54:29.815Z,97128.45
2022-08-25T17:57:20.233Z,97128.98
2022-08-25T17:59:58.189Z,97130.59
2022-08-25T18:02:36.409Z,97136.77
2022-08-25T18:08:05.358Z,97144.16
2022-08-25T18:10:44.221Z,97148.42
2022-08-25T18:13:35.561Z,97145.77
2022-08-25T18:16:11.313Z,97149.00
2022-08-25T18:18:47.380Z,97148.52
2022-08-25T18:21:30.734Z,97153.70
2022-08-25T18:24:04.541Z,97156.45
2022-08-25T18:26:38.036Z,97157.23
2022-08-25T18:29:12.652Z,97162.89
2022-08-25T18:31:49.132Z,97160.60
2022-08-25T18:34:23.016Z,97163.72
2022-08-25T18:37:21.441Z,97169.77
2022-08-25T18:40:14.795Z,97168.41
2022-08-25T18:42:57.073Z,97168.94
2022-08-25T18:45:34.734Z,97169.23
2022-08-25T18:48:36.996Z,97169.86
2022-08-25T18:51:22.887Z,97169.35
2022-08-25T18:54:01.457Z,97169.33
2022-08-25T18:56:35.577Z,97171.52
2022-08-25T18:59:17.883Z,97167.73
2022-08-25T19:01:51.004Z,97171.19
2022-08-25T19:04:56.117Z,97173.36
2022-08-25T19:07:31.323Z,97180.10
2022-08-25T19:10:33.014Z,97187.14
2022-08-25T19:13:17.245Z,97187.51
2022-08-25T19:15:59.049Z,97185.98
2022-08-25T19:18:37.063Z,97187.74
2022-08-25T19:21:10.153Z,97187.00
2022-08-25T19:23:57.094Z,97178.48
2022-08-25T19:26:37.800Z,97175.69
2022-08-25T19:29:34.895Z,97178.09
2022-08-25T19:32:12.895Z,97181.99
2022-08-25T19:38:33.264Z,97198.38
2022-08-25T19:41:39.945Z,97204.19
2022-08-25T19:44:18.360Z,97202.64
2022-08-25T19:46:50.686Z,97194.85
2022-08-25T19:49:48.005Z,97197.17
2022-08-25T19:52:31.596Z,97203.78
2022-08-25T19:55:10.981Z,97208.59
2022-08-25T19:57:47.493Z,97206.05
2022-08-25T20:00:20.783Z,97204.12
2022-08-25T20:02:55.165Z,97199.75
2022-08-25T20:05:36.114Z,97200.16
2022-08-25T20:08:14.065Z,97205.90
2022-08-25T20:10:49.976Z,97205.52
2022-08-25T20:13:31.043Z,97208.66
2022-08-25T20:16:07.180Z,97207.12
2022-08-25T20:18:45.825Z,97209.17
2022-08-25T20:21:27.514Z,97212.85
2022-08-25T20:24:24.141Z,97212.85
2022-08-25T20:27:00.398Z,97213.61
2022-08-25T20:29:35.956Z,97209.46
2022-08-25T20:32:14.375Z,97202.81
2022-08-25T20:34:52.284Z,97202.82
2022-08-25T20:37:31.724Z,97200.64
2022-08-25T20:40:12.228Z,97198.13
2022-08-25T20:42:48.946Z,97194.70
2022-08-25T20:45:26.233Z,97194.70
2022-08-25T20:51:00.202Z,97193.65
2022-08-25T20:53:41.962Z,97193.81
2022-08-25T20:56:16.696Z,97198.75
2022-08-25T20:59:03.194Z,97203.15
2022-08-25T21:01:46.591Z,97203.85
2022-08-25T21:04:28.951Z,97203.52
2022-08-25T21:07:12.770Z,97205.30
2022-08-25T21:09:48.836Z,97201.36
2022-08-25T21:12:32.065Z,97198.91
2022-08-25T21:15:12.945Z,97200.44
2022-08-25T21:17:56.581Z,97200.02
2022-08-25T21:20:33.743Z,97200.16
2022-08-25T21:23:09.112Z,97199.38
2022-08-25T21:25:46.803Z,97200.38
2022-08-25T21:28:25.809Z,97201.67
2022-08-25T21:31:03.568Z,97206.83
2022-08-25T21:33:41.741Z,97205.24
2022-08-25T21:36:21.287Z,97207.41
2022-08-25T21:39:07.292Z,97202.93
2022-08-25T21:41:44.430Z,97199.64
2022-08-25T21:44:24.743Z,97200.27
2022-08-25T21:47:04.374Z,97198.29
2022-08-25T21:49:45.585Z,97201.17
2022-08-25T21:52:20.069Z,97204.27
2022-08-25T21:54:54.040Z,97203.55
2022-08-25T21:57:37.218Z,97202.30
2022-08-25T22:00:19.180Z,97197.69
2022-08-25T22:03:02.390Z,97200.88
2022-08-25T22:05:47.203Z,97196.04
2022-08-25T22:08:31.571Z,97197.59
2022-08-25T22:11:17.446Z,97199.98
2022-08-25T22:13:56.886Z,97201.54
2022-08-25T22:16:36.297Z,97200.19
2022-08-25T22:19:15.918Z,97198.30
2022-08-25T22:21:50.435Z,97195.08
2022-08-25T22:24:30.896Z,97193.80
2022-08-25T22:27:17.202Z,97191.92
2022-08-25T22:33:09.125Z,97185.08
2022-08-25T22:35:51.268Z,97184.84
2022-08-25T22:38:36.208Z,97181.39
2022-08-25T22:41:42.721Z,97175.67
2022-08-25T22:44:25.178Z,97178.95
2022-08-25T22:47:12.323Z,97178.40
2022-08-25T22:49:54.188Z,97178.95
2022-08-25T22:52:33.656Z,97176.84
2022-08-25T22:55:13.163Z,97174.04
2022-08-25T22:58:25.286Z,97173.80
2022-08-25T23:00:59.806Z,97173.88
2022-08-25T23:03:33.527Z,97175.59
2022-08-25T23:06:20.724Z,97174.98
2022-08-25T23:09:05.176Z,97173.49
2022-08-25T23:11:42.784Z,97172.41
2022-08-25T23:14:17.512Z,97170.19
2022-08-25T23:16:52.272Z,97169.27
2022-08-25T23:19:33.213Z,97167.23
2022-08-25T23:22:16.178Z,97170.29
2022-08-25T23:24:59.561Z,97169.50
2022-08-25T23:27:35.411Z,97167.77
2022-08-25T23:30:42.902Z,97169.87
2022-08-25T23:33:18.741Z,97164.62
2022-08-25T23:36:14.819Z,97164.45
2022-08-25T23:42:08.474Z,97154.42
2022-08-25T23:48:13.737Z,97152.88
2022-08-25T23:50:58.293Z,97153.59
2022-08-25T23:53:36.507Z,97152.67
2022-08-25T23:56:26.599Z,97153.23
2022-08-25T23:59:14.511Z,97151.17
